»·PEaware :: ASA1753 KSFO-KSEA

ASA1753 :: KSFO-KSEA

FLIGHT INFORMATION

Flight Status: Arrived
Operator:
Alaska Airlines
More flights by this operator :: More flights under this callsign
Pilot: Sam W. (19108)
Aircraft: AIRBUS A320
(A320)
More flights by this aircraft type
Origin: KSFO San Francisco Intl
United States
Destination: KSEA Seattle-Tacoma Intl
United States
More flights between these airports :: More routes between these airports
Route: TRUKN2 GRTFL LMT HAWKZ6
File this flight plan on PilotEdge
Remarks:
Altitude:
(Current/Filed)
36,000ft
Speed:
(Current/Filed)
434kts
Departed: 07-May-18 03:01 PM
Arrived: 07-May-18 04:41 PM
Distance/Time
Traveled:
590nm/1:40
Distance/Time
To Go:
Arrived

Flight Plot

Page will automatically refresh every two minutes.

Flight plan parsing failed; only flown route is shown


Map Options




Map Legend


Flown Route
Filed Route
Departure Airport
Arrival Airport
Navaid (VOR, NDB)
Fix

Horizontal Profiles

Position Reports

Time Latitude Longitude Heading Altitude Ground
Speed
07-May-18 14:26 37.616481 -122.380795 340 27ft 0kts
07-May-18 14:27 37.616481 -122.380795 340 27ft 0kts
07-May-18 14:28 37.616481 -122.380795 340 27ft 0kts
07-May-18 14:29 37.616481 -122.380795 340 27ft 0kts
07-May-18 14:30 37.616481 -122.380795 340 27ft 0kts
07-May-18 14:31 37.616481 -122.380795 340 27ft 0kts
07-May-18 14:32 37.616481 -122.380795 340 27ft 0kts
07-May-18 14:33 37.616481 -122.380795 340 27ft 0kts
07-May-18 14:40 37.616481 -122.380794 340 27ft 0kts
07-May-18 14:41 37.616481 -122.380794 340 27ft 0kts
07-May-18 14:42 37.616481 -122.380794 340 27ft 0kts
07-May-18 14:43 37.616481 -122.380794 340 27ft 0kts
07-May-18 14:44 37.616481 -122.380794 340 27ft 0kts
07-May-18 14:45 37.616481 -122.380794 340 27ft 0kts
07-May-18 14:46 37.616481 -122.380794 340 27ft 0kts
07-May-18 14:47 37.616481 -122.380794 340 27ft 0kts
07-May-18 14:48 37.616481 -122.380794 340 27ft 0kts
07-May-18 14:49 37.616481 -122.380794 340 27ft 0kts
07-May-18 14:50 37.616462 -122.380786 340 27ft 1kts
07-May-18 14:51 37.616001 -122.380566 326 27ft 2kts
07-May-18 14:52 37.616002 -122.380568 326 27ft 0kts
07-May-18 14:53 37.615984 -122.380553 326 27ft 0kts
07-May-18 14:54 37.615971 -122.380098 202 27ft 0kts
07-May-18 14:55 37.614445 -122.381092 208 27ft 15kts
07-May-18 14:56 37.611745 -122.382914 207 27ft 16kts
07-May-18 14:57 37.610285 -122.383796 206 27ft 7kts
07-May-18 14:58 37.609409 -122.383366 112 27ft 1kts
07-May-18 14:59 37.609355 -122.383203 112 27ft 0kts
07-May-18 15:00 37.609142 -122.382532 105 27ft 5kts
07-May-18 15:01 37.621081 -122.374268 19 38ft 167kts
07-May-18 15:02 37.656679 -122.330317 55 2555ft 209kts
07-May-18 15:03 37.694268 -122.259634 55 4677ft 268kts
07-May-18 15:04 37.753991 -122.214041 356 7829ft 276kts
07-May-18 15:05 37.833390 -122.217786 358 10483ft 297kts
07-May-18 15:06 37.924550 -122.220069 357 11858ft 355kts
07-May-18 15:07 38.026513 -122.222783 357 14127ft 372kts
07-May-18 15:08 38.131602 -122.225539 356 16325ft 383kts
07-May-18 15:09 38.235535 -122.228357 356 18252ft 394kts
07-May-18 15:10 38.346506 -122.225890 11 20049ft 410kts
07-May-18 15:11 38.442545 -122.142234 36 21681ft 429kts
07-May-18 15:12 38.538581 -122.048208 33 23147ft 439kts
07-May-18 15:13 38.646583 -121.983895 359 24518ft 431kts
07-May-18 15:14 38.767942 -121.977673 359 25835ft 441kts
07-May-18 15:15 38.891318 -121.968343 358 27077ft 448kts
07-May-18 15:16 39.016705 -121.959599 358 28229ft 455kts
07-May-18 15:17 39.144406 -121.950620 358 29294ft 462kts
07-May-18 15:18 39.273309 -121.941425 357 30382ft 465kts
07-May-18 15:19 39.401580 -121.932263 357 31704ft 460kts
07-May-18 15:20 39.529387 -121.923156 356 32898ft 457kts
07-May-18 15:21 39.655915 -121.913994 356 33964ft 454kts
07-May-18 15:22 39.782203 -121.904956 356 34828ft 453kts
07-May-18 15:23 39.907725 -121.895853 356 35642ft 450kts
07-May-18 15:24 40.032732 -121.886794 356 36115ft 451kts
07-May-18 15:25 40.158059 -121.877651 356 36107ft 450kts
07-May-18 15:26 40.282939 -121.868533 356 36106ft 450kts
07-May-18 15:27 40.407797 -121.859371 355 36109ft 450kts
07-May-18 15:27 40.512155 -121.851649 356 36136ft 449kts
07-May-18 15:28 40.636669 -121.842463 356 36149ft 448kts
07-May-18 15:29 40.761013 -121.833245 355 36163ft 448kts
07-May-18 15:30 40.885610 -121.823993 355 36191ft 447kts
07-May-18 15:31 41.009737 -121.814697 355 36210ft 447kts
07-May-18 15:32 41.134095 -121.805346 355 36226ft 446kts
07-May-18 15:33 41.257994 -121.796031 355 36233ft 446kts
07-May-18 15:34 41.381777 -121.786656 355 36245ft 446kts
07-May-18 15:36 41.526508 -121.775674 355 36252ft 446kts
07-May-18 15:36 41.629605 -121.767819 355 36247ft 446kts
07-May-18 15:37 41.753474 -121.758337 355 36248ft 446kts
07-May-18 15:38 41.877713 -121.748815 355 36268ft 446kts
07-May-18 15:39 42.001512 -121.739270 355 36279ft 446kts
07-May-18 15:40 42.125332 -121.729699 355 36285ft 446kts
07-May-18 15:41 42.246213 -121.745953 342 36283ft 433kts
07-May-18 15:42 42.365471 -121.770480 343 36275ft 434kts
07-May-18 15:43 42.485250 -121.794884 343 36280ft 434kts
07-May-18 15:44 42.604762 -121.819277 343 36276ft 435kts
07-May-18 15:45 42.724397 -121.843820 343 36263ft 435kts
07-May-18 15:47 42.844449 -121.868511 343 36257ft 435kts
07-May-18 15:48 42.964239 -121.893298 343 36241ft 436kts
07-May-18 15:49 43.084465 -121.918213 344 36230ft 436kts
07-May-18 15:50 43.204490 -121.943276 343 36207ft 437kts
07-May-18 15:51 43.324733 -121.968361 344 36240ft 437kts
07-May-18 15:52 43.445491 -121.993754 344 36236ft 439kts
07-May-18 15:53 43.566143 -122.019177 344 36243ft 440kts
07-May-18 15:54 43.687050 -122.044789 344 36272ft 440kts
07-May-18 15:55 43.808519 -122.070617 344 36269ft 441kts
07-May-18 15:56 43.929508 -122.096422 344 36274ft 440kts
07-May-18 15:57 44.050335 -122.122324 344 36270ft 439kts
07-May-18 15:58 44.171438 -122.148406 344 36252ft 439kts
07-May-18 15:59 44.292190 -122.174491 344 36248ft 439kts
07-May-18 16:00 44.413404 -122.200803 344 36237ft 440kts
07-May-18 16:01 44.534194 -122.227137 344 36240ft 440kts
07-May-18 16:02 44.655199 -122.253627 344 36214ft 441kts
07-May-18 16:03 44.776805 -122.280313 344 36249ft 441kts
07-May-18 16:04 44.898172 -122.307130 344 36246ft 442kts
07-May-18 16:05 45.019766 -122.334123 344 36242ft 443kts
07-May-18 16:06 45.126617 -122.357874 344 36246ft 443kts
07-May-18 16:07 45.135421 -122.359839 344 36243ft 443kts
07-May-18 16:08 45.249057 -122.385222 343 36230ft 443kts
07-May-18 16:09 45.365534 -122.411354 343 36231ft 441kts
07-May-18 16:10 45.486577 -122.438659 343 36170ft 440kts
07-May-18 16:11 45.607598 -122.466072 343 36147ft 439kts
07-May-18 16:12 45.728370 -122.493524 343 36166ft 440kts
07-May-18 16:13 45.849152 -122.521127 343 36238ft 440kts
07-May-18 16:14 45.969728 -122.548724 343 34875ft 437kts
07-May-18 16:15 46.090659 -122.576584 344 31907ft 438kts
07-May-18 16:16 46.210250 -122.604241 344 29376ft 430kts
07-May-18 16:17 46.326562 -122.631273 344 26975ft 417kts
07-May-18 16:18 46.439260 -122.657547 345 24712ft 401kts
07-May-18 16:19 46.547158 -122.682830 345 23684ft 388kts
07-May-18 16:20 46.653260 -122.707833 345 22689ft 384kts
07-May-18 16:21 46.758265 -122.732680 345 21693ft 380kts
07-May-18 16:22 46.855662 -122.706040 47 20022ft 392kts
07-May-18 16:23 46.899864 -122.611290 50 18496ft 386kts
07-May-18 16:24 46.982219 -122.540941 9 17414ft 333kts
07-May-18 16:25 47.071521 -122.503875 11 15568ft 331kts
07-May-18 16:26 47.161043 -122.485388 3 13879ft 320kts
07-May-18 16:27 47.248511 -122.470939 2 12236ft 312kts
07-May-18 16:28 47.311254 -122.461638 3 11007ft 307kts
07-May-18 16:29 47.391308 -122.455035 357 9822ft 282kts
07-May-18 16:30 47.468848 -122.455266 359 8180ft 276kts
07-May-18 16:31 47.531654 -122.455195 359 7005ft 270kts
07-May-18 16:32 47.606713 -122.454582 359 6992ft 270kts
07-May-18 16:33 47.680793 -122.453983 359 6039ft 263kts
07-May-18 16:34 47.748537 -122.438492 46 4571ft 249kts
07-May-18 16:35 47.739815 -122.351638 143 4009ft 248kts
07-May-18 16:36 47.682584 -122.309032 179 3999ft 216kts
07-May-18 16:37 47.624657 -122.309584 181 3583ft 202kts
07-May-18 16:38 47.569701 -122.310081 181 2517ft 194kts
07-May-18 16:39 47.517201 -122.310570 179 1516ft 177kts
07-May-18 16:40 47.474290 -122.310859 182 674ft 141kts
07-May-18 16:41 47.445663 -122.310338 154 447ft 13kts
07-May-18 16:42 47.444208 -122.309141 149 447ft 9kts
07-May-18 16:43 47.443593 -122.306416 17 447ft 0kts
07-May-18 16:44 47.446815 -122.306313 0 447ft 17kts
07-May-18 16:45 47.447510 -122.306256 18 447ft 0kts
07-May-18 16:46 47.447573 -122.306220 21 447ft 2kts
07-May-18 16:47 47.447603 -122.306203 19 447ft 0kts
07-May-18 16:48 47.446678 -122.302313 139 447ft 15kts
07-May-18 16:49 47.444919 -122.302337 144 447ft 0kts

Navigation Log

Ident Type
Flight plan parsing failed, navigation log unavailable